Time;durP1;ratioP1;P1;durP2;ratioP2;P2;SDS_P1;SDS_P2;PMS_P1;PMS_P2;Temp;Humidity;BMP_temperature;BMP_pressure;BME280_temperature;BME280_humidity;BME280_pressure;Samples;Min_cycle;Max_cycle;Signal;HPM_P1;HPM_P2
2023/03/28 00:01:15;;;;;;;2.20;1.20;;;3.80;99.90;;;;;;5107199;28;20176;-66
2023/03/28 00:03:41;;;;;;;2.47;1.07;;;3.90;99.90;;;;;;5056106;28;20204;-66
2023/03/28 00:06:12;;;;;;;5.43;1.63;;;3.80;99.90;;;;;;5065753;28;20208;-67
2023/03/28 00:08:39;;;;;;;2.93;1.40;;;3.70;99.90;;;;;;5060963;28;20187;-66
2023/03/28 00:11:17;;;;;;;3.63;1.23;;;3.70;99.90;;;;;;5072644;28;20241;-66
2023/03/28 00:13:44;;;;;;;2.17;1.20;;;3.70;99.90;;;;;;5066540;28;20173;-65
2023/03/28 00:16:13;;;;;;;3.53;1.10;;;3.70;99.90;;;;;;5075078;28;20176;-64
2023/03/28 00:18:39;;;;;;;2.67;1.00;;;3.60;99.90;;;;;;5075104;28;20255;-64
2023/03/28 00:21:29;;;;;;;2.07;1.00;;;3.60;99.90;;;;;;5075212;28;20243;-64
2023/03/28 00:24:02;;;;;;;3.57;1.20;;;3.60;99.90;;;;;;5075174;28;20226;-64
2023/03/28 00:26:31;;;;;;;2.77;1.27;;;3.60;99.90;;;;;;5075045;28;20173;-64
2023/03/28 00:28:57;;;;;;;3.73;1.20;;;3.60;99.90;;;;;;5074129;28;20263;-63
2023/03/28 00:31:26;;;;;;;3.47;1.30;;;3.60;99.90;;;;;;5068089;28;20299;-64
2023/03/28 00:33:52;;;;;;;3.03;1.30;;;3.60;99.90;;;;;;5054969;28;20169;-64
2023/03/28 00:36:22;;;;;;;4.90;1.13;;;3.50;99.90;;;;;;5054632;28;20174;-64
2023/03/28 00:38:54;;;;;;;3.07;1.50;;;3.50;99.90;;;;;;5054735;28;20169;-64
2023/03/28 00:41:25;;;;;;;2.20;1.23;;;3.50;99.90;;;;;;5055089;28;20342;-63
2023/03/28 00:43:53;;;;;;;3.07;1.20;;;3.50;99.90;;;;;;5054721;28;20196;-64
2023/03/28 00:46:33;;;;;;;3.47;1.40;;;3.50;99.90;;;;;;5064936;28;20173;-64
2023/03/28 00:49:03;;;;;;;3.57;1.30;;;3.40;99.90;;;;;;5056262;28;20201;-64
2023/03/28 00:51:43;;;;;;;2.10;1.20;;;3.40;99.90;;;;;;5066353;28;20197;-64
2023/03/28 00:54:13;;;;;;;3.77;1.40;;;3.40;99.90;;;;;;5069049;28;20196;-64
2023/03/28 00:56:42;;;;;;;3.33;1.27;;;3.40;99.90;;;;;;5054938;28;20204;-64
2023/03/28 00:59:17;;;;;;;6.33;1.30;;;3.40;99.90;;;;;;5058583;28;20172;-64
2023/03/28 01:01:46;;;;;;;4.00;1.30;;;3.40;99.90;;;;;;5059277;28;20187;-63
2023/03/28 01:04:19;;;;;;;3.77;1.27;;;3.40;99.90;;;;;;5055214;28;20173;-65
2023/03/28 01:06:49;;;;;;;2.50;1.10;;;3.40;99.90;;;;;;5067931;28;20207;-64
2023/03/28 01:09:19;;;;;;;2.50;1.13;;;3.40;99.90;;;;;;5070090;28;20176;-64
2023/03/28 01:11:46;;;;;;;4.43;1.30;;;3.40;99.90;;;;;;5071221;28;20197;-64
2023/03/28 01:14:16;;;;;;;2.90;1.30;;;3.30;99.90;;;;;;5057654;28;20177;-64
2023/03/28 01:16:46;;;;;;;2.27;1.30;;;3.30;99.90;;;;;;5057139;28;20173;-67
2023/03/28 01:19:35;;;;;;;1.63;1.20;;;3.30;99.90;;;;;;5072372;28;20173;-67
2023/03/28 01:22:14;;;;;;;1.77;1.23;;;3.30;99.90;;;;;;5056927;28;20204;-64
2023/03/28 01:25:04;;;;;;;2.63;1.30;;;3.30;99.90;;;;;;5071067;28;20410;-64
2023/03/28 01:27:40;;;;;;;2.50;1.30;;;3.30;99.90;;;;;;5054891;28;20173;-65
2023/03/28 01:30:26;;;;;;;3.43;1.27;;;3.20;99.90;;;;;;5059032;28;20173;-65
2023/03/28 01:33:01;;;;;;;2.90;1.20;;;3.20;99.90;;;;;;5069862;28;20189;-65
2023/03/28 01:35:51;;;;;;;3.77;1.57;;;3.20;99.90;;;;;;5087825;28;20180;-65
2023/03/28 01:38:22;;;;;;;2.63;1.40;;;3.20;99.90;;;;;;5062365;28;20230;-65
2023/03/28 01:40:53;;;;;;;1.83;1.17;;;3.20;99.90;;;;;;5054697;28;20292;-66
2023/03/28 01:43:24;;;;;;;3.57;1.30;;;3.20;99.90;;;;;;5070258;28;20255;-65
2023/03/28 01:45:55;;;;;;;3.83;1.47;;;3.20;99.90;;;;;;5054058;28;20259;-65
2023/03/28 01:48:46;;;;;;;2.00;1.30;;;3.20;99.90;;;;;;5059430;28;20256;-66
2023/03/28 01:51:32;;;;;;;3.03;1.40;;;3.10;99.90;;;;;;5059546;28;20265;-66
2023/03/28 01:54:11;;;;;;;3.50;1.20;;;3.10;99.90;;;;;;5092091;28;20205;-66
2023/03/28 01:56:46;;;;;;;5.73;1.27;;;3.10;99.90;;;;;;5061536;28;20187;-66
2023/03/28 01:59:11;;;;;;;1.77;1.20;;;3.10;99.90;;;;;;5091534;28;20231;-66
2023/03/28 02:01:53;;;;;;;3.27;1.20;;;3.10;99.90;;;;;;5073495;28;20174;-66
2023/03/28 02:04:22;;;;;;;3.43;1.10;;;3.10;99.90;;;;;;5074277;28;20183;-66
2023/03/28 02:06:50;;;;;;;3.00;1.60;;;3.00;99.90;;;;;;5074330;28;20203;-66
2023/03/28 02:09:20;;;;;;;1.90;1.07;;;3.00;99.90;;;;;;5074745;28;20180;-65
2023/03/28 02:11:48;;;;;;;2.20;1.20;;;3.00;99.90;;;;;;5075080;28;20192;-65
2023/03/28 02:14:21;;;;;;;3.20;1.40;;;3.00;99.90;;;;;;5061499;28;20177;-65
2023/03/28 02:16:51;;;;;;;2.80;1.30;;;2.90;99.90;;;;;;5068507;28;20177;-65
2023/03/28 02:19:19;;;;;;;3.17;1.43;;;2.90;99.90;;;;;;5057697;28;20189;-66
2023/03/28 02:21:51;;;;;;;2.03;1.60;;;2.90;99.90;;;;;;5074985;28;20184;-65
2023/03/28 02:24:21;;;;;;;4.47;1.63;;;2.80;99.90;;;;;;5065871;28;20220;-68
2023/03/28 02:26:47;;;;;;;1.90;1.30;;;2.80;99.90;;;;;;5062113;28;20181;-66
2023/03/28 02:29:15;;;;;;;2.80;1.40;;;2.80;99.90;;;;;;5057645;28;20180;-65
2023/03/28 02:31:43;;;;;;;3.00;1.60;;;2.80;99.90;;;;;;5073755;28;20215;-65
2023/03/28 02:34:09;;;;;;;2.50;1.40;;;2.80;99.90;;;;;;5077658;28;20169;-66
2023/03/28 02:36:56;;;;;;;3.80;1.70;;;2.70;99.90;;;;;;5077235;28;20165;-65
2023/03/28 02:39:42;;;;;;;2.83;1.30;;;2.70;99.90;;;;;;5057072;28;20240;-64
2023/03/28 02:42:32;;;;;;;2.60;1.20;;;2.70;99.90;;;;;;5063577;28;20203;-65
2023/03/28 02:45:12;;;;;;;2.73;1.40;;;2.70;99.90;;;;;;5062551;28;20188;-64
2023/03/28 02:48:01;;;;;;;3.07;1.20;;;2.70;99.90;;;;;;5099242;28;20185;-64
2023/03/28 02:50:36;;;;;;;2.07;1.17;;;2.70;99.90;;;;;;5061514;28;20201;-65
2023/03/28 02:53:07;;;;;;;2.57;1.27;;;2.60;99.90;;;;;;5075492;28;20190;-64
2023/03/28 02:55:48;;;;;;;2.23;1.10;;;2.60;99.90;;;;;;5057293;28;20196;-65
2023/03/28 02:58:55;;;;;;;2.33;1.50;;;2.60;99.90;;;;;;5061955;28;20204;-64
2023/03/28 03:01:27;;;;;;;3.30;1.13;;;2.60;99.90;;;;;;5057748;28;20258;-64
2023/03/28 03:03:53;;;;;;;3.10;1.37;;;2.60;99.90;;;;;;5092002;28;20177;-64
2023/03/28 03:06:19;;;;;;;3.60;1.30;;;2.60;99.90;;;;;;5067803;28;20177;-64
2023/03/28 03:08:45;;;;;;;2.37;1.60;;;2.60;99.90;;;;;;5067168;28;20183;-65
2023/03/28 03:11:10;;;;;;;3.40;1.30;;;2.60;99.90;;;;;;5073481;28;20200;-64
2023/03/28 03:13:36;;;;;;;2.37;1.33;;;2.60;99.90;;;;;;5073035;28;20165;-64
2023/03/28 03:16:02;;;;;;;1.77;1.13;;;2.60;99.90;;;;;;5057337;28;20189;-64
2023/03/28 03:18:31;;;;;;;3.70;1.80;;;2.50;99.90;;;;;;5061938;28;20380;-66
2023/03/28 03:21:00;;;;;;;3.43;1.60;;;2.50;99.90;;;;;;5070287;28;20260;-65
2023/03/28 03:23:28;;;;;;;2.30;1.27;;;2.60;99.90;;;;;;5056571;28;20173;-65
2023/03/28 03:25:54;;;;;;;3.57;1.00;;;2.60;99.90;;;;;;5070751;28;20171;-65
2023/03/28 03:28:20;;;;;;;3.83;1.30;;;2.50;99.90;;;;;;5067466;28;20183;-65
2023/03/28 03:30:46;;;;;;;3.37;1.60;;;2.50;99.90;;;;;;5068800;28;20173;-65
2023/03/28 03:33:13;;;;;;;2.37;1.50;;;2.50;99.90;;;;;;5070857;28;20201;-65
2023/03/28 03:35:40;;;;;;;4.53;1.60;;;2.50;99.90;;;;;;5076202;28;20176;-65
2023/03/28 03:38:08;;;;;;;3.80;1.20;;;2.50;99.90;;;;;;5059503;28;20192;-65
2023/03/28 03:40:34;;;;;;;3.10;1.13;;;2.50;99.90;;;;;;5063886;28;20173;-66
2023/03/28 03:43:02;;;;;;;2.20;1.37;;;2.50;99.90;;;;;;5065242;28;20181;-65
2023/03/28 03:45:28;;;;;;;2.30;1.27;;;2.50;99.90;;;;;;5082474;28;20176;-65
2023/03/28 03:47:53;;;;;;;2.90;0.97;;;2.50;99.90;;;;;;5090396;28;20255;-65
2023/03/28 03:50:19;;;;;;;3.47;1.03;;;2.40;99.90;;;;;;5056112;28;20193;-65
2023/03/28 03:52:45;;;;;;;1.60;1.20;;;2.50;99.90;;;;;;5066297;28;20343;-65
2023/03/28 03:55:13;;;;;;;3.20;1.13;;;2.40;99.90;;;;;;5057448;28;20182;-65
2023/03/28 03:57:38;;;;;;;3.40;0.90;;;2.40;99.90;;;;;;5071472;28;20165;-65
2023/03/28 04:00:10;;;;;;;2.53;1.20;;;2.40;99.90;;;;;;5067822;28;20250;-66
2023/03/28 04:02:39;;;;;;;1.97;0.93;;;2.40;99.90;;;;;;5075125;28;20205;-66
2023/03/28 04:05:07;;;;;;;2.50;1.00;;;2.40;99.90;;;;;;5075761;28;20185;-65
2023/03/28 04:07:33;;;;;;;3.20;1.10;;;2.40;99.90;;;;;;5065380;28;20346;-66
2023/03/28 04:09:59;;;;;;;1.97;1.20;;;2.40;99.90;;;;;;5094567;28;20195;-66
2023/03/28 04:12:24;;;;;;;1.87;1.00;;;2.40;99.90;;;;;;5075226;28;20199;-65
2023/03/28 04:14:50;;;;;;;2.73;1.10;;;2.40;99.90;;;;;;5055869;28;20169;-66
2023/03/28 04:17:20;;;;;;;6.00;1.20;;;2.40;99.90;;;;;;5055988;28;20212;-66
2023/03/28 04:19:46;;;;;;;3.23;1.30;;;2.40;99.90;;;;;;5055608;28;20170;-66
2023/03/28 04:22:17;;;;;;;2.97;1.30;;;2.40;99.90;;;;;;5055354;28;20173;-67
2023/03/28 04:24:43;;;;;;;4.53;1.40;;;2.40;99.90;;;;;;5055491;28;20254;-66
2023/03/28 04:27:09;;;;;;;2.97;1.40;;;2.40;99.90;;;;;;5095299;28;20412;-66
2023/03/28 04:29:38;;;;;;;1.70;1.03;;;2.40;99.90;;;;;;5086927;28;20176;-66
2023/03/28 04:32:05;;;;;;;2.60;1.63;;;2.40;99.90;;;;;;5067445;28;20208;-66
2023/03/28 04:34:32;;;;;;;3.20;1.37;;;2.40;99.90;;;;;;5059927;28;20170;-66
2023/03/28 04:37:00;;;;;;;3.67;1.47;;;2.40;99.90;;;;;;5062200;28;20241;-66
2023/03/28 04:39:29;;;;;;;1.57;1.10;;;2.40;99.90;;;;;;5054527;28;20193;-65
2023/03/28 04:42:02;;;;;;;3.10;1.30;;;2.40;99.90;;;;;;5054918;28;20177;-65
2023/03/28 04:44:31;;;;;;;2.60;1.10;;;2.40;99.90;;;;;;5056267;28;20177;-65
2023/03/28 04:46:59;;;;;;;4.60;1.60;;;2.40;99.90;;;;;;5078563;28;20192;-65
2023/03/28 04:49:25;;;;;;;2.73;1.40;;;2.40;99.90;;;;;;5094520;28;20244;-66
2023/03/28 04:51:51;;;;;;;3.27;1.43;;;2.40;99.90;;;;;;5070507;28;20273;-66
2023/03/28 04:54:17;;;;;;;4.50;1.70;;;2.40;99.90;;;;;;5072008;28;20196;-66
2023/03/28 04:56:44;;;;;;;2.43;1.30;;;2.40;99.90;;;;;;5067243;28;20173;-70
2023/03/28 04:59:16;;;;;;;1.97;0.93;;;2.40;99.90;;;;;;5065829;28;20183;-69
2023/03/28 05:01:47;;;;;;;5.63;1.20;;;2.40;99.90;;;;;;5074232;28;20181;-69
2023/03/28 05:04:17;;;;;;;2.70;1.37;;;2.40;99.90;;;;;;5058502;28;20169;-70
2023/03/28 05:06:47;;;;;;;1.17;1.00;;;2.30;99.90;;;;;;5054739;28;20173;-69
2023/03/28 05:09:16;;;;;;;1.90;1.00;;;2.30;99.90;;;;;;5058210;28;20185;-69
2023/03/28 05:11:44;;;;;;;1.70;1.00;;;2.30;99.90;;;;;;5057852;28;20229;-68
2023/03/28 05:14:10;;;;;;;4.53;1.30;;;2.30;99.90;;;;;;5053818;28;20452;-69
2023/03/28 05:16:36;;;;;;;1.57;1.10;;;2.30;99.90;;;;;;5064143;28;20204;-68
2023/03/28 05:19:08;;;;;;;3.27;1.17;;;2.30;99.90;;;;;;5073647;28;20295;-68
2023/03/28 05:21:36;;;;;;;3.20;1.20;;;2.30;99.90;;;;;;5054169;28;20184;-68
2023/03/28 05:24:07;;;;;;;2.53;1.40;;;2.30;99.90;;;;;;5059295;28;20188;-68
2023/03/28 05:26:33;;;;;;;1.73;1.00;;;2.30;99.90;;;;;;5074010;28;20200;-67
2023/03/28 05:28:59;;;;;;;1.97;1.00;;;2.20;99.90;;;;;;5073698;28;20241;-69
2023/03/28 05:31:28;;;;;;;2.93;1.20;;;2.30;99.90;;;;;;5074066;28;20504;-68
2023/03/28 05:33:54;;;;;;;3.30;1.20;;;2.20;99.90;;;;;;5070110;28;20197;-69
2023/03/28 05:36:24;;;;;;;1.90;0.90;;;2.30;99.90;;;;;;5053929;28;20173;-69
2023/03/28 05:38:50;;;;;;;2.63;1.20;;;2.30;99.90;;;;;;5073097;28;20187;-69
2023/03/28 05:41:16;;;;;;;3.53;1.23;;;2.30;99.90;;;;;;5073386;28;20251;-68
2023/03/28 05:43:44;;;;;;;2.70;1.30;;;2.30;99.90;;;;;;5074961;28;20221;-67
2023/03/28 05:46:10;;;;;;;2.47;1.30;;;2.30;99.90;;;;;;5077662;28;20193;-69
2023/03/28 05:48:35;;;;;;;1.60;1.13;;;2.30;99.90;;;;;;5077656;28;20184;-68
2023/03/28 05:51:01;;;;;;;2.87;1.50;;;2.30;99.90;;;;;;5076966;28;20200;-68
2023/03/28 05:53:27;;;;;;;1.97;1.17;;;2.30;99.90;;;;;;5077255;28;20179;-69
2023/03/28 05:55:52;;;;;;;2.30;1.27;;;2.30;99.90;;;;;;5077820;28;20470;-68
2023/03/28 05:58:19;;;;;;;4.33;1.30;;;2.40;99.90;;;;;;5077395;28;20176;-70
2023/03/28 06:00:45;;;;;;;1.70;1.13;;;2.40;99.90;;;;;;5077826;28;20200;-70
2023/03/28 06:03:11;;;;;;;2.77;1.33;;;2.40;99.90;;;;;;5077740;28;20172;-66
2023/03/28 06:05:37;;;;;;;1.90;1.20;;;2.40;99.90;;;;;;5077592;28;20161;-69
2023/03/28 06:08:04;;;;;;;2.23;1.20;;;2.50;99.90;;;;;;5077371;28;20363;-69
2023/03/28 06:10:32;;;;;;;4.83;1.60;;;2.50;99.90;;;;;;5077138;28;20299;-69
2023/03/28 06:12:59;;;;;;;3.40;1.40;;;2.60;99.90;;;;;;5077229;28;20227;-71
2023/03/28 06:15:25;;;;;;;4.17;1.40;;;2.60;99.90;;;;;;5076516;28;20259;-70
2023/03/28 06:17:50;;;;;;;3.83;1.20;;;2.80;99.90;;;;;;5077297;28;20279;-69
2023/03/28 06:20:22;;;;;;;1.73;1.20;;;2.80;99.90;;;;;;5077252;28;20272;-71
2023/03/28 06:22:48;;;;;;;3.37;1.27;;;2.80;99.90;;;;;;5077241;28;20231;-67
2023/03/28 06:25:16;;;;;;;2.33;1.23;;;2.80;99.90;;;;;;5076845;28;20189;-69
2023/03/28 06:27:42;;;;;;;3.27;1.53;;;2.90;99.90;;;;;;5077253;28;20183;-69
2023/03/28 06:30:11;;;;;;;2.47;1.40;;;2.90;99.90;;;;;;5073154;28;20173;-68
2023/03/28 06:32:36;;;;;;;2.63;1.30;;;3.00;99.90;;;;;;5073643;28;20204;-69
2023/03/28 06:35:04;;;;;;;3.00;1.30;;;3.00;99.90;;;;;;5073690;28;20169;-68
2023/03/28 06:37:30;;;;;;;9.10;1.47;;;3.10;99.90;;;;;;5073524;28;20200;-69
2023/03/28 06:39:55;;;;;;;2.80;1.27;;;3.10;99.90;;;;;;5073695;28;20165;-69
2023/03/28 06:42:23;;;;;;;3.30;1.40;;;3.20;99.90;;;;;;5073535;28;20177;-69
2023/03/28 06:44:54;;;;;;;2.80;1.80;;;3.20;99.90;;;;;;5076664;28;20196;-68
2023/03/28 06:47:19;;;;;;;3.90;1.73;;;3.20;99.90;;;;;;5076708;28;20176;-68
2023/03/28 06:49:45;;;;;;;3.13;1.40;;;3.30;99.90;;;;;;5076586;28;20192;-68
2023/03/28 06:52:10;;;;;;;2.83;1.30;;;3.30;99.90;;;;;;5076622;28;20204;-68
2023/03/28 06:54:36;;;;;;;3.73;1.43;;;3.40;99.90;;;;;;5077063;28;20179;-68
2023/03/28 06:57:04;;;;;;;3.67;1.20;;;3.40;99.90;;;;;;5076664;28;20176;-67
2023/03/28 06:59:30;;;;;;;3.33;1.30;;;3.40;99.90;;;;;;5077236;28;20165;-68
2023/03/28 07:01:56;;;;;;;2.87;1.50;;;3.50;99.90;;;;;;5077560;28;20222;-68
2023/03/28 07:04:24;;;;;;;1.70;1.17;;;3.50;99.90;;;;;;5077132;28;20197;-70
2023/03/28 07:06:51;;;;;;;2.23;1.40;;;3.60;99.90;;;;;;5076927;28;20173;-70
2023/03/28 07:09:19;;;;;;;2.90;1.30;;;3.60;99.90;;;;;;5076517;28;20244;-69
2023/03/28 07:11:45;;;;;;;3.40;1.33;;;3.70;99.90;;;;;;5076312;28;20244;-68
2023/03/28 07:14:10;;;;;;;3.17;1.80;;;3.70;99.90;;;;;;5074448;28;20169;-69
2023/03/28 07:16:38;;;;;;;2.67;1.30;;;3.80;99.90;;;;;;5056283;28;20228;-70
2023/03/28 07:19:06;;;;;;;4.93;1.30;;;3.90;99.90;;;;;;5090288;28;20193;-70
2023/03/28 07:21:34;;;;;;;4.10;1.20;;;3.90;99.90;;;;;;5056458;28;20181;-69
2023/03/28 07:24:03;;;;;;;3.73;1.40;;;4.00;99.90;;;;;;5074961;28;20179;-69
2023/03/28 07:26:28;;;;;;;4.13;1.50;;;4.10;99.90;;;;;;5058573;28;20242;-69
2023/03/28 07:28:55;;;;;;;1.50;1.17;;;4.20;99.90;;;;;;5056487;28;20177;-70
2023/03/28 07:31:20;;;;;;;6.87;2.03;;;4.20;99.90;;;;;;5056247;28;20208;-69
2023/03/28 07:33:49;;;;;;;4.80;1.50;;;4.30;99.90;;;;;;5062492;28;20173;-69
2023/03/28 07:36:17;;;;;;;4.10;1.60;;;4.30;99.90;;;;;;5056054;28;20169;-69
2023/03/28 07:38:43;;;;;;;4.23;1.90;;;4.40;99.90;;;;;;5074636;28;20240;-68
2023/03/28 07:41:09;;;;;;;2.47;1.40;;;4.50;99.90;;;;;;5057303;28;20228;-69
2023/03/28 07:43:40;;;;;;;4.20;1.87;;;4.60;99.90;;;;;;5059518;28;20197;-69
2023/03/28 07:46:08;;;;;;;3.10;1.33;;;4.80;99.90;;;;;;5057847;28;20238;-69
2023/03/28 07:48:36;;;;;;;2.67;1.47;;;4.80;99.90;;;;;;5074703;28;20188;-69
2023/03/28 07:51:08;;;;;;;2.60;1.33;;;4.90;99.90;;;;;;5069291;28;20212;-69
2023/03/28 07:53:34;;;;;;;3.30;1.50;;;5.00;99.90;;;;;;5056117;28;20165;-69
2023/03/28 07:56:14;;;;;;;6.37;1.77;;;5.10;99.90;;;;;;5063561;28;20208;-69
2023/03/28 07:58:42;;;;;;;3.40;1.70;;;5.10;99.90;;;;;;5056282;28;20212;-69
2023/03/28 08:01:12;;;;;;;4.10;1.47;;;5.20;99.90;;;;;;5074355;28;20176;-69
2023/03/28 08:03:40;;;;;;;3.07;1.67;;;5.20;99.90;;;;;;5075641;28;20193;-68
2023/03/28 08:06:08;;;;;;;5.27;1.67;;;5.30;99.90;;;;;;5075862;28;20176;-69
2023/03/28 08:08:34;;;;;;;6.37;2.00;;;5.30;99.90;;;;;;5071307;28;20297;-69
2023/03/28 08:11:00;;;;;;;3.23;1.63;;;5.40;99.90;;;;;;5055636;28;20291;-68
2023/03/28 08:13:25;;;;;;;3.17;1.80;;;5.50;99.90;;;;;;5067175;28;20234;-69
2023/03/28 08:15:54;;;;;;;2.47;1.63;;;5.50;99.90;;;;;;5075709;28;20201;-68
2023/03/28 08:18:21;;;;;;;3.97;1.90;;;5.60;99.90;;;;;;5064829;28;20184;-71
2023/03/28 08:20:47;;;;;;;2.57;1.40;;;5.70;99.90;;;;;;5055806;28;20323;-69
2023/03/28 08:23:13;;;;;;;3.47;1.73;;;5.80;99.90;;;;;;5072886;28;20184;-67
2023/03/28 08:25:39;;;;;;;2.83;1.43;;;5.80;99.90;;;;;;5075946;28;20173;-69
2023/03/28 08:28:07;;;;;;;1.93;1.30;;;5.90;99.90;;;;;;5056241;28;20205;-69
2023/03/28 08:30:33;;;;;;;3.47;1.30;;;5.90;99.90;;;;;;5055465;28;20182;-68
2023/03/28 08:32:59;;;;;;;4.23;1.30;;;6.00;99.90;;;;;;5055091;28;20208;-69
2023/03/28 08:35:25;;;;;;;2.57;1.47;;;6.00;99.90;;;;;;5071121;28;20254;-69
2023/03/28 08:37:51;;;;;;;2.97;1.33;;;6.10;99.90;;;;;;5075386;28;20173;-68
2023/03/28 08:40:19;;;;;;;4.70;1.57;;;6.20;99.90;;;;;;5075027;28;20203;-69
2023/03/28 08:43:16;;;;;;;2.37;1.10;;;6.30;99.90;;;;;;5071135;28;20192;-69
2023/03/28 08:45:55;;;;;;;1.97;1.27;;;6.30;99.90;;;;;;5055222;28;20256;-69
2023/03/28 08:48:23;;;;;;;2.90;1.50;;;6.40;99.90;;;;;;5088593;28;20201;-68
2023/03/28 08:50:57;;;;;;;2.97;1.30;;;6.50;99.90;;;;;;5057294;28;20204;-69
2023/03/28 08:53:25;;;;;;;2.10;1.37;;;6.50;99.90;;;;;;5055010;28;20212;-68
2023/03/28 08:55:52;;;;;;;2.80;1.23;;;6.60;99.90;;;;;;5088370;28;20194;-69
2023/03/28 08:58:22;;;;;;;3.83;0.97;;;6.70;99.90;;;;;;5054438;28;20173;-69
2023/03/28 09:00:49;;;;;;;3.13;1.07;;;6.80;99.90;;;;;;5054843;28;20181;-69
2023/03/28 09:03:21;;;;;;;2.77;1.00;;;6.80;99.90;;;;;;5054640;28;20310;-69
2023/03/28 09:06:00;;;;;;;4.47;1.50;;;7.00;99.90;;;;;;5054743;28;20207;-69
2023/03/28 09:08:35;;;;;;;4.00;1.17;;;7.10;99.90;;;;;;5064772;28;20177;-67
2023/03/28 09:11:20;;;;;;;2.27;1.00;;;7.30;99.90;;;;;;5074387;28;20194;-68
2023/03/28 09:13:51;;;;;;;1.70;1.00;;;7.50;99.90;;;;;;5057696;28;20173;-69
2023/03/28 09:16:39;;;;;;;3.53;1.03;;;7.70;99.90;;;;;;5055801;28;20173;-69
2023/03/28 09:19:20;;;;;;;1.73;0.80;;;7.80;99.90;;;;;;5074131;28;20405;-69
2023/03/28 09:22:04;;;;;;;2.13;0.90;;;7.90;99.90;;;;;;5073526;28;20200;-69
2023/03/28 09:24:54;;;;;;;3.57;0.90;;;7.90;99.90;;;;;;5074517;28;20211;-69
2023/03/28 09:27:36;;;;;;;3.00;0.80;;;8.00;99.90;;;;;;5071013;28;20475;-69
2023/03/28 09:30:23;;;;;;;1.73;0.73;;;8.10;99.90;;;;;;5066525;28;20191;-68
2023/03/28 09:32:54;;;;;;;1.13;0.80;;;8.10;99.90;;;;;;5071478;28;20252;-69
2023/03/28 09:35:24;;;;;;;1.53;0.60;;;8.10;99.90;;;;;;5074591;28;20180;-69
2023/03/28 09:37:52;;;;;;;2.07;0.70;;;8.10;99.90;;;;;;5072144;28;20196;-71
2023/03/28 09:40:45;;;;;;;1.50;0.80;;;8.20;99.90;;;;;;5054205;28;20208;-70
2023/03/28 09:43:25;;;;;;;2.43;0.80;;;8.20;99.90;;;;;;5059302;28;20201;-69
2023/03/28 09:46:01;;;;;;;1.70;0.60;;;8.30;99.90;;;;;;5054561;28;20237;-69
2023/03/28 09:48:30;;;;;;;2.47;1.17;;;8.30;99.90;;;;;;5071108;28;20183;-69
2023/03/28 09:51:00;;;;;;;2.10;1.07;;;8.40;99.90;;;;;;5074323;28;20168;-70
2023/03/28 09:53:34;;;;;;;4.67;0.87;;;8.40;99.90;;;;;;5074422;28;20176;-70
2023/03/28 09:56:01;;;;;;;3.70;1.00;;;8.70;99.90;;;;;;5067409;28;20260;-69
2023/03/28 09:58:27;;;;;;;3.43;1.00;;;9.10;99.90;;;;;;5072156;28;20173;-69
2023/03/28 10:00:54;;;;;;;1.70;0.80;;;9.50;99.90;;;;;;5073583;28;20188;-65
2023/03/28 10:03:28;;;;;;;2.07;0.90;;;9.80;99.90;;;;;;5074505;28;20193;-70
2023/03/28 10:05:58;;;;;;;4.05;0.90;;;10.10;99.90;;;;;;5070813;28;20182;-68
2023/03/28 10:08:33;;;;;;;1.52;0.80;;;10.40;99.90;;;;;;5087573;28;20193;-68
2023/03/28 10:11:00;;;;;;;2.65;0.98;;;10.70;99.90;;;;;;5087439;28;20220;-69
2023/03/28 10:13:36;;;;;;;2.78;0.73;;;11.00;99.90;;;;;;5056750;28;20260;-67
2023/03/28 10:16:04;;;;;;;2.20;0.70;;;11.10;99.90;;;;;;5054501;28;20165;-68
2023/03/28 10:18:31;;;;;;;1.45;0.70;;;11.20;99.90;;;;;;5059073;28;20188;-70
2023/03/28 10:21:05;;;;;;;2.47;0.93;;;11.20;99.90;;;;;;5074244;28;20196;-70
2023/03/28 10:23:31;;;;;;;2.15;0.80;;;11.30;99.90;;;;;;5072181;28;20164;-69
2023/03/28 10:26:01;;;;;;;2.40;0.90;;;11.40;99.90;;;;;;5054216;28;20258;-69
2023/03/28 10:28:31;;;;;;;2.13;0.93;;;11.50;99.90;;;;;;5090392;28;20186;-69
2023/03/28 10:31:00;;;;;;;2.10;1.10;;;11.50;99.90;;;;;;5054897;28;20177;-69
2023/03/28 10:33:29;;;;;;;1.52;1.00;;;11.40;99.90;;;;;;5063671;28;20279;-68
2023/03/28 10:36:19;;;;;;;1.50;1.05;;;11.30;99.90;;;;;;5059979;28;20181;-68
2023/03/28 10:38:47;;;;;;;1.10;0.75;;;11.30;99.90;;;;;;5071036;28;20204;-68
2023/03/28 10:41:23;;;;;;;1.38;0.80;;;11.20;99.90;;;;;;5056827;28;20184;-68
2023/03/28 10:43:49;;;;;;;1.92;0.90;;;11.20;99.90;;;;;;5056816;28;20200;-64
2023/03/28 10:46:45;;;;;;;4.53;1.02;;;11.20;99.90;;;;;;5058550;28;20201;-68
2023/03/28 10:49:19;;;;;;;3.88;1.00;;;11.30;99.90;;;;;;5088957;28;20196;-67
2023/03/28 10:51:45;;;;;;;2.15;0.90;;;11.40;99.90;;;;;;5070021;28;20208;-68
2023/03/28 10:54:37;;;;;;;8.05;4.93;;;11.40;99.90;;;;;;5076882;28;20264;-68
2023/03/28 10:57:19;;;;;;;3.70;1.90;;;11.30;99.90;;;;;;5076415;28;20180;-69
2023/03/28 10:59:49;;;;;;;4.40;1.50;;;11.40;99.90;;;;;;5076016;28;20201;-68
2023/03/28 11:02:32;;;;;;;2.40;1.30;;;11.50;99.90;;;;;;5076352;28;20177;-68
2023/03/28 11:05:20;;;;;;;4.18;1.30;;;11.50;99.90;;;;;;5072705;28;20296;-70
2023/03/28 11:08:08;;;;;;;4.50;1.65;;;11.50;99.90;;;;;;5057907;28;20356;-71
2023/03/28 11:11:05;;;;;;;2.08;1.10;;;11.50;99.90;;;;;;5076202;28;20216;-68
2023/03/28 11:14:03;;;;;;;1.83;1.10;;;11.40;99.90;;;;;;5062267;28;20196;-67
2023/03/28 11:16:57;;;;;;;1.63;1.00;;;11.30;99.90;;;;;;5040256;28;20254;-68
2023/03/28 11:19:57;;;;;;;1.90;1.00;;;11.30;99.90;;;;;;5056038;28;20180;-69
2023/03/28 11:23:08;;;;;;;1.42;0.90;;;11.20;99.90;;;;;;5075735;28;20169;-67
2023/03/28 11:25:42;;;;;;;2.00;0.88;;;11.20;99.90;;;;;;5052141;28;20317;-70
2023/03/28 11:28:16;;;;;;;1.35;1.00;;;11.20;99.90;;;;;;5074848;28;20172;-68
2023/03/28 11:30:49;;;;;;;2.50;1.05;;;11.20;99.90;;;;;;5069982;28;20172;-68
2023/03/28 11:33:52;;;;;;;2.03;1.10;;;11.20;99.90;;;;;;5067154;28;20207;-69
2023/03/28 11:36:28;;;;;;;3.38;0.90;;;11.10;99.90;;;;;;5099491;28;20230;-66
2023/03/28 11:39:02;;;;;;;2.00;1.02;;;11.00;99.90;;;;;;5073657;28;20203;-66
2023/03/28 11:41:34;;;;;;;3.78;0.93;;;11.00;99.90;;;;;;5068898;28;20187;-67
2023/03/28 11:44:25;;;;;;;1.23;0.85;;;11.00;99.90;;;;;;5074845;28;20176;-69
2023/03/28 11:47:25;;;;;;;1.58;0.85;;;10.90;99.90;;;;;;5075328;28;20263;-68
2023/03/28 11:50:03;;;;;;;2.90;1.33;;;10.90;99.90;;;;;;5071838;28;20169;-68
2023/03/28 11:52:40;;;;;;;3.70;1.40;;;10.90;99.90;;;;;;5088612;28;20200;-68
2023/03/28 11:55:32;;;;;;;4.25;1.38;;;10.90;99.90;;;;;;5065639;28;20446;-68
2023/03/28 11:58:04;;;;;;;3.88;1.48;;;10.90;99.90;;;;;;5073993;28;20224;-68
2023/03/28 12:00:35;;;;;;;3.22;2.05;;;10.90;99.90;;;;;;5072125;28;20242;-68
2023/03/28 12:03:24;;;;;;;3.63;2.20;;;11.00;99.90;;;;;;5070140;28;20208;-69
2023/03/28 12:05:56;;;;;;;3.65;1.98;;;11.10;99.90;;;;;;5057971;28;20180;-68
2023/03/28 12:08:48;;;;;;;2.22;1.45;;;11.30;99.90;;;;;;5074490;28;20258;-68
2023/03/28 12:11:20;;;;;;;1.85;1.25;;;11.50;99.90;;;;;;5072791;28;20261;-67
2023/03/28 12:14:30;;;;;;;2.00;0.95;;;11.70;99.90;;;;;;5055148;28;20461;-68
2023/03/28 12:16:57;;;;;;;2.45;1.10;;;12.00;99.90;;;;;;5050687;28;20216;-68
2023/03/28 12:19:55;;;;;;;3.20;1.00;;;12.30;99.90;;;;;;5056429;28;20195;-66
2023/03/28 12:22:25;;;;;;;2.70;1.33;;;12.60;99.90;;;;;;5050778;28;20232;-69
2023/03/28 12:25:05;;;;;;;4.07;1.58;;;12.80;99.90;;;;;;5064371;28;20172;-69
2023/03/28 12:27:56;;;;;;;2.47;1.02;;;13.10;99.90;;;;;;5075495;28;20168;-69
2023/03/28 12:31:04;;;;;;;1.55;1.10;;;13.30;99.90;;;;;;5072859;28;20165;-69
2023/03/28 12:33:42;;;;;;;2.55;1.10;;;13.50;99.90;;;;;;5055121;28;20212;-70
2023/03/28 12:36:20;;;;;;;2.60;1.00;;;13.70;99.90;;;;;;5074754;28;20233;-69
2023/03/28 12:38:59;;;;;;;3.15;1.05;;;13.70;99.90;;;;;;5073301;28;20188;-69
2023/03/28 12:41:40;;;;;;;2.55;1.17;;;13.60;99.90;;;;;;5074454;28;20184;-69
2023/03/28 12:44:29;;;;;;;1.77;0.90;;;13.60;99.90;;;;;;5074014;28;20219;-69
2023/03/28 12:47:01;;;;;;;3.15;0.95;;;13.50;99.90;;;;;;5070362;28;20200;-69
2023/03/28 12:49:42;;;;;;;3.47;1.20;;;13.50;99.90;;;;;;5074368;28;20153;-69
2023/03/28 12:52:17;;;;;;;2.05;1.00;;;13.50;99.90;;;;;;5075089;28;20204;-67
2023/03/28 12:54:55;;;;;;;1.95;0.90;;;13.40;99.90;;;;;;5074196;28;20179;-70
2023/03/28 12:57:42;;;;;;;1.80;1.00;;;13.50;99.90;;;;;;5075029;28;20215;-69
2023/03/28 13:00:23;;;;;;;1.63;0.70;;;13.50;99.90;;;;;;5074617;28;20184;-66
2023/03/28 13:03:06;;;;;;;2.45;1.00;;;13.60;99.90;;;;;;5097579;28;20237;-69
2023/03/28 13:05:54;;;;;;;1.77;0.90;;;13.70;99.90;;;;;;5074434;28;20257;-66
2023/03/28 13:08:49;;;;;;;2.63;0.95;;;13.70;99.90;;;;;;5074928;28;20165;-67
2023/03/28 13:11:24;;;;;;;2.40;0.70;;;13.70;99.90;;;;;;5074218;28;20200;-66
2023/03/28 13:13:55;;;;;;;2.50;0.88;;;13.60;99.90;;;;;;5073481;28;20168;-66
2023/03/28 13:16:25;;;;;;;1.42;0.80;;;13.50;99.90;;;;;;5088165;28;20278;-67
2023/03/28 13:19:07;;;;;;;2.63;0.95;;;13.50;99.90;;;;;;5074342;28;20187;-68
2023/03/28 13:21:46;;;;;;;1.23;0.80;;;13.40;99.90;;;;;;5074943;28;20172;-67
2023/03/28 13:24:24;;;;;;;2.58;0.98;;;13.20;99.90;;;;;;5070430;28;20226;-66